createdAt,value
2022-08-14T00:04:34.392Z,24.98
2022-08-14T00:09:39.992Z,24.99
2022-08-14T00:15:00.219Z,24.98
2022-08-14T00:20:05.337Z,24.97
2022-08-14T00:25:10.979Z,24.96
2022-08-14T00:30:17.308Z,24.95
2022-08-14T00:35:22.459Z,24.94
2022-08-14T00:40:47.137Z,24.96
2022-08-14T00:45:54.978Z,24.95
2022-08-14T00:50:59.698Z,24.93
2022-08-14T00:56:07.221Z,24.95
2022-08-14T01:01:14.314Z,24.94
2022-08-14T01:06:23.339Z,24.93
2022-08-14T01:11:36.106Z,24.94
2022-08-14T01:16:40.897Z,24.92
2022-08-14T01:21:53.665Z,24.91
2022-08-14T01:27:00.322Z,24.90
2022-08-14T01:32:06.457Z,24.90
2022-08-14T01:37:16.445Z,24.89
2022-08-14T01:42:31.608Z,24.89
2022-08-14T01:47:40.824Z,24.89
2022-08-14T01:52:59.880Z,24.89
2022-08-14T01:58:19.870Z,24.89
2022-08-14T02:03:29.888Z,24.89
2022-08-14T02:08:38.096Z,24.87
2022-08-14T02:13:59.550Z,24.87
2022-08-14T02:19:13.408Z,24.86
2022-08-14T02:24:39.392Z,24.85
2022-08-14T02:29:59.601Z,24.85
2022-08-14T02:35:17.615Z,24.85
2022-08-14T02:40:32.160Z,24.85
2022-08-14T02:45:44.275Z,24.84
2022-08-14T02:50:51.359Z,24.84
2022-08-14T02:55:56.449Z,24.83
2022-08-14T03:01:08.770Z,24.81
2022-08-14T03:06:14.388Z,24.82
2022-08-14T03:11:26.309Z,24.81
2022-08-14T03:16:40.269Z,24.81
2022-08-14T03:21:46.268Z,24.80
2022-08-14T03:26:57.921Z,24.79
2022-08-14T03:32:02.647Z,24.79
2022-08-14T03:37:38.207Z,24.78
2022-08-14T03:42:35.791Z,24.79
2022-08-14T03:47:56.288Z,24.79
2022-08-14T03:53:06.070Z,24.79
2022-08-14T03:58:12.985Z,24.77
2022-08-14T04:03:29.110Z,24.76
2022-08-14T04:08:36.688Z,24.79
2022-08-14T04:13:42.072Z,24.75
2022-08-14T04:18:48.893Z,24.75
2022-08-14T04:23:57.202Z,24.74
2022-08-14T04:29:14.166Z,24.74
2022-08-14T04:34:24.065Z,24.74
2022-08-14T04:39:57.190Z,24.74
2022-08-14T04:45:02.289Z,24.74
2022-08-14T04:50:07.390Z,24.73
2022-08-14T04:55:11.829Z,24.72
2022-08-14T05:00:18.125Z,24.73
2022-08-14T05:05:23.250Z,24.71
2022-08-14T05:10:32.257Z,24.70
2022-08-14T05:15:39.426Z,24.72
2022-08-14T05:21:54.427Z,24.70
2022-08-14T05:26:15.308Z,24.70
2022-08-14T05:31:20.379Z,24.71
2022-08-14T05:36:25.469Z,24.69
2022-08-14T05:41:53.544Z,24.69
2022-08-14T05:46:58.847Z,24.69
2022-08-14T05:52:03.315Z,24.70
2022-08-14T05:57:14.448Z,24.70
2022-08-14T06:02:19.709Z,24.69
2022-08-14T06:07:26.208Z,24.70
2022-08-14T06:12:31.436Z,24.69
2022-08-14T06:17:59.481Z,24.70
2022-08-14T06:23:04.648Z,24.70
2022-08-14T06:28:27.244Z,24.66
2022-08-14T06:35:04.564Z,24.68
2022-08-14T06:38:57.595Z,24.67
2022-08-14T06:44:02.202Z,24.67
2022-08-14T06:49:06.351Z,24.67
2022-08-14T06:54:10.730Z,24.67
2022-08-14T06:59:20.000Z,24.66
2022-08-14T07:04:42.249Z,24.66
2022-08-14T07:09:51.000Z,24.67
2022-08-14T07:15:01.166Z,24.67
2022-08-14T07:20:07.551Z,24.67
2022-08-14T07:25:12.129Z,24.65
2022-08-14T07:30:34.227Z,24.66
2022-08-14T07:35:57.807Z,24.67
2022-08-14T07:41:04.027Z,24.68
2022-08-14T07:46:21.131Z,24.65
2022-08-14T07:51:34.235Z,24.65
2022-08-14T07:56:48.083Z,24.64
2022-08-14T08:01:53.827Z,24.64
2022-08-14T08:07:03.267Z,24.63
2022-08-14T08:12:14.399Z,24.62
2022-08-14T08:17:20.429Z,24.62
2022-08-14T08:22:27.355Z,24.61
2022-08-14T08:27:37.048Z,24.62
2022-08-14T08:32:52.272Z,24.62
2022-08-14T08:39:14.065Z,24.61
2022-08-14T08:43:29.848Z,24.64
2022-08-14T08:48:53.540Z,24.62
2022-08-14T08:53:58.670Z,24.62
2022-08-14T08:59:03.171Z,24.61
2022-08-14T09:04:17.449Z,24.60
2022-08-14T09:09:22.948Z,24.60
2022-08-14T09:14:29.308Z,24.60
2022-08-14T09:19:34.029Z,24.60
2022-08-14T09:24:44.076Z,24.58
2022-08-14T09:29:54.016Z,24.60
2022-08-14T09:35:03.953Z,24.58
2022-08-14T09:40:21.283Z,24.58
2022-08-14T09:45:39.668Z,24.59
2022-08-14T09:50:48.249Z,24.60
2022-08-14T09:56:00.671Z,24.57
2022-08-14T10:01:09.328Z,24.57
2022-08-14T10:06:17.432Z,24.59
2022-08-14T10:11:24.448Z,24.56
2022-08-14T10:16:33.918Z,24.56
2022-08-14T10:21:58.663Z,24.55
2022-08-14T10:27:05.627Z,24.58
2022-08-14T10:32:17.928Z,24.56
2022-08-14T10:37:38.750Z,24.57
2022-08-14T10:42:45.429Z,24.54
2022-08-14T10:48:07.766Z,24.54
2022-08-14T10:53:15.441Z,24.55
2022-08-14T10:58:28.353Z,24.53
2022-08-14T11:03:57.003Z,24.54
2022-08-14T11:09:12.450Z,24.58
2022-08-14T11:14:22.943Z,24.59
2022-08-14T11:19:33.270Z,24.57
2022-08-14T11:24:50.479Z,24.57
2022-08-14T11:30:51.438Z,24.58
2022-08-14T11:35:44.142Z,24.59
2022-08-14T11:40:52.503Z,24.58
2022-08-14T11:45:56.948Z,24.58
2022-08-14T11:51:01.188Z,24.58
2022-08-14T11:56:06.829Z,24.57
2022-08-14T12:01:15.649Z,24.57
2022-08-14T12:06:29.687Z,24.55
2022-08-14T12:11:47.120Z,24.57
2022-08-14T12:17:00.528Z,24.56
2022-08-14T12:22:06.905Z,24.56
2022-08-14T12:27:16.865Z,24.56
2022-08-14T12:32:21.729Z,24.56
2022-08-14T12:37:31.739Z,24.61
2022-08-14T12:42:39.642Z,24.59
2022-08-14T12:47:47.594Z,24.60
2022-08-14T12:53:13.888Z,24.58
2022-08-14T12:58:35.122Z,24.57
2022-08-14T13:03:46.330Z,24.58
2022-08-14T13:08:52.802Z,24.58
2022-08-14T13:13:59.412Z,24.61
2022-08-14T13:19:04.331Z,24.57
2022-08-14T13:24:14.391Z,24.54
2022-08-14T13:29:20.579Z,24.55
2022-08-14T13:34:26.049Z,24.54
2022-08-14T13:39:36.721Z,24.55
2022-08-14T13:44:43.344Z,24.55
2022-08-14T13:49:57.029Z,24.54
2022-08-14T13:55:05.089Z,24.54
2022-08-14T14:00:12.886Z,24.53
2022-08-14T14:05:18.510Z,24.52
2022-08-14T14:10:28.276Z,24.53
2022-08-14T14:15:48.547Z,24.51
2022-08-14T14:21:02.049Z,24.54
2022-08-14T14:26:06.308Z,24.53
2022-08-14T14:31:29.711Z,24.53
2022-08-14T14:36:35.096Z,24.52
2022-08-14T14:41:43.400Z,24.51
2022-08-14T14:46:50.354Z,24.52
2022-08-14T14:51:55.789Z,24.51
2022-08-14T14:57:00.347Z,24.52
2022-08-14T15:02:09.101Z,24.52
2022-08-14T15:07:16.308Z,24.50
2022-08-14T15:12:55.184Z,24.49
2022-08-14T15:17:45.688Z,24.52
2022-08-14T15:22:51.961Z,24.51
2022-08-14T15:27:56.889Z,24.49
2022-08-14T15:33:01.489Z,24.51
2022-08-14T15:38:08.536Z,24.49
2022-08-14T15:43:13.207Z,24.51
2022-08-14T15:48:22.158Z,24.49
2022-08-14T15:53:31.362Z,24.49
2022-08-14T15:58:36.810Z,24.48
2022-08-14T16:03:43.603Z,24.50
2022-08-14T16:08:58.719Z,24.48
2022-08-14T16:14:06.788Z,24.48
2022-08-14T16:19:11.869Z,24.49
2022-08-14T16:24:27.732Z,24.47
2022-08-14T16:34:58.467Z,24.49
2022-08-14T16:40:04.792Z,24.48
2022-08-14T16:40:24.433Z,24.48
2022-08-14T16:45:11.009Z,24.47
2022-08-14T16:50:40.370Z,24.47
2022-08-14T16:55:53.516Z,24.48
2022-08-14T17:01:22.646Z,24.47
2022-08-14T17:06:42.996Z,24.49
2022-08-14T17:11:51.994Z,24.48
2022-08-14T17:17:00.187Z,24.44
2022-08-14T17:22:05.748Z,24.44
2022-08-14T17:27:11.172Z,24.44
2022-08-14T17:32:56.227Z,24.43
2022-08-14T17:37:55.744Z,24.48
2022-08-14T17:43:02.096Z,24.43
2022-08-14T17:48:09.829Z,24.43
2022-08-14T17:53:34.793Z,24.44
2022-08-14T17:58:42.200Z,24.42
2022-08-14T18:03:52.939Z,24.41
2022-08-14T18:08:59.128Z,24.41
2022-08-14T18:14:04.012Z,24.40
2022-08-14T18:19:10.567Z,24.41
2022-08-14T18:24:28.241Z,24.39
2022-08-14T18:29:42.507Z,24.41
2022-08-14T18:34:50.757Z,24.40
2022-08-14T18:40:16.045Z,24.39
2022-08-14T18:45:28.887Z,24.41
2022-08-14T18:50:33.887Z,24.40
2022-08-14T18:55:53.354Z,24.37
2022-08-14T19:01:00.029Z,24.39
2022-08-14T19:06:05.273Z,24.38
2022-08-14T19:11:32.101Z,24.37
2022-08-14T19:16:37.647Z,24.37
2022-08-14T19:21:55.333Z,24.37
2022-08-14T19:27:13.509Z,24.37
2022-08-14T19:32:40.553Z,24.37
2022-08-14T19:37:47.102Z,24.36
2022-08-14T19:42:52.227Z,24.35
2022-08-14T19:48:03.508Z,24.33
2022-08-14T19:53:11.132Z,24.32
2022-08-14T19:58:15.888Z,24.33
2022-08-14T20:03:24.073Z,24.33
2022-08-14T20:10:58.747Z,24.32
2022-08-14T20:13:58.348Z,24.32
2022-08-14T20:19:11.769Z,24.31
2022-08-14T20:24:30.421Z,24.31
2022-08-14T20:29:38.121Z,24.31
2022-08-14T20:34:51.514Z,24.32
2022-08-14T20:39:56.566Z,24.30
2022-08-14T20:45:23.755Z,24.30
2022-08-14T20:50:29.725Z,24.30
2022-08-14T20:55:37.241Z,24.30
2022-08-14T21:00:51.679Z,24.29
2022-08-14T21:05:58.589Z,24.29
2022-08-14T21:11:04.069Z,24.29
2022-08-14T21:16:33.088Z,24.30
2022-08-14T21:21:40.608Z,24.30
2022-08-14T21:26:51.202Z,24.29
2022-08-14T21:32:20.609Z,24.28
2022-08-14T21:37:25.654Z,24.30
2022-08-14T21:42:35.963Z,24.28
2022-08-14T21:47:43.214Z,24.28
2022-08-14T21:52:52.139Z,24.26
2022-08-14T21:58:53.086Z,24.26
2022-08-14T22:03:35.563Z,24.27
2022-08-14T22:08:45.740Z,24.26
2022-08-14T22:13:51.331Z,24.25
2022-08-14T22:18:55.516Z,24.23
2022-08-14T22:24:01.691Z,24.24
2022-08-14T22:29:18.491Z,24.26
2022-08-14T22:34:22.990Z,24.24
2022-08-14T22:40:48.337Z,24.24
2022-08-14T22:44:56.455Z,24.23
2022-08-14T22:50:31.793Z,24.23
2022-08-14T22:55:27.190Z,24.25
2022-08-14T23:00:31.479Z,24.23
2022-08-14T23:05:39.911Z,24.22
2022-08-14T23:10:57.390Z,24.23
2022-08-14T23:16:01.391Z,24.22
2022-08-14T23:21:09.892Z,24.21
2022-08-14T23:26:49.058Z,24.21
2022-08-14T23:31:39.404Z,24.22
2022-08-14T23:36:53.199Z,24.21
2022-08-14T23:42:02.333Z,24.22
2022-08-14T23:47:10.661Z,24.22
2022-08-14T23:52:55.558Z,24.22
2022-08-14T23:57:58.505Z,24.20
